createdAt,value
2023-04-23T00:01:26.683Z,5.40
2023-04-23T00:03:57.529Z,5.40
2023-04-23T00:06:24.730Z,5.40
2023-04-23T00:08:53.700Z,5.40
2023-04-23T00:11:20.917Z,5.40
2023-04-23T00:13:47.958Z,5.40
2023-04-23T00:16:15.540Z,5.30
2023-04-23T00:18:42.319Z,5.30
2023-04-23T00:21:10.390Z,5.30
2023-04-23T00:23:38.001Z,5.30
2023-04-23T00:26:05.071Z,5.20
2023-04-23T00:28:31.925Z,5.20
2023-04-23T00:30:58.813Z,5.10
2023-04-23T00:33:25.609Z,5.00
2023-04-23T00:35:52.594Z,4.90
2023-04-23T00:38:20.741Z,4.90
2023-04-23T00:40:47.530Z,4.80
2023-04-23T00:43:14.341Z,4.80
2023-04-23T00:45:41.388Z,4.70
2023-04-23T00:48:08.782Z,4.70
2023-04-23T00:50:38.574Z,4.60
2023-04-23T00:53:05.688Z,4.60
2023-04-23T00:55:35.448Z,4.60
2023-04-23T00:58:02.413Z,4.60
2023-04-23T01:00:30.408Z,4.60
2023-04-23T01:02:57.420Z,4.60
2023-04-23T01:05:24.599Z,4.70
2023-04-23T01:07:52.714Z,4.70
2023-04-23T01:10:19.838Z,4.70
2023-04-23T01:12:49.051Z,4.70
2023-04-23T01:15:19.002Z,4.70
2023-04-23T01:17:46.283Z,4.70
2023-04-23T01:20:13.333Z,4.70
2023-04-23T01:22:42.758Z,4.70
2023-04-23T01:25:11.965Z,4.70
2023-04-23T01:27:42.268Z,4.70
2023-04-23T01:30:12.848Z,4.70
2023-04-23T01:32:40.102Z,4.70
2023-04-23T01:35:08.599Z,4.80
2023-04-23T01:37:38.278Z,4.80
2023-04-23T01:40:07.955Z,4.80
2023-04-23T01:42:34.795Z,4.80
2023-04-23T01:45:02.567Z,4.80
2023-04-23T01:47:29.752Z,4.70
2023-04-23T01:49:56.521Z,4.70
2023-04-23T01:52:23.291Z,4.70
2023-04-23T01:54:50.000Z,4.70
2023-04-23T01:57:18.493Z,4.60
2023-04-23T01:59:45.319Z,4.70
2023-04-23T02:02:12.135Z,4.70
2023-04-23T02:04:40.929Z,4.70
2023-04-23T02:07:07.815Z,4.80
2023-04-23T02:09:35.428Z,4.80
2023-04-23T02:12:02.213Z,4.90
2023-04-23T02:14:30.384Z,4.90
2023-04-23T02:16:58.157Z,5.00
2023-04-23T02:19:24.921Z,5.10
2023-04-23T02:21:51.651Z,5.20
2023-04-23T02:24:23.523Z,5.30
2023-04-23T02:26:50.504Z,5.40
2023-04-23T02:29:17.194Z,5.50
2023-04-23T02:31:45.315Z,5.50
2023-04-23T02:34:12.416Z,5.50
2023-04-23T02:36:39.267Z,5.60
2023-04-23T02:39:06.288Z,5.60
2023-04-23T02:41:33.036Z,5.70
2023-04-23T02:43:59.788Z,5.60
2023-04-23T02:46:26.560Z,5.60
2023-04-23T02:48:56.944Z,5.60
2023-04-23T02:51:23.698Z,5.60
2023-04-23T02:53:50.407Z,5.60
2023-04-23T02:56:17.151Z,5.60
2023-04-23T02:58:44.280Z,5.60
2023-04-23T03:01:12.400Z,5.60
2023-04-23T03:03:39.936Z,5.60
2023-04-23T03:06:08.610Z,5.60
2023-04-23T03:08:35.650Z,5.50
2023-04-23T03:11:02.425Z,5.50
2023-04-23T03:13:29.239Z,5.60
2023-04-23T03:15:56.211Z,5.60
2023-04-23T03:18:26.305Z,5.60
2023-04-23T03:20:53.053Z,5.60
2023-04-23T03:23:21.407Z,5.70
2023-04-23T03:25:48.238Z,5.70
2023-04-23T03:28:15.015Z,5.70
2023-04-23T03:30:43.931Z,5.70
2023-04-23T03:33:10.774Z,5.80
2023-04-23T03:35:37.775Z,5.80
2023-04-23T03:38:04.808Z,5.80
2023-04-23T03:40:33.170Z,5.80
2023-04-23T03:43:00.997Z,5.80
2023-04-23T03:45:27.877Z,5.80
2023-04-23T03:47:54.675Z,5.80
2023-04-23T03:50:21.618Z,5.80
2023-04-23T03:52:48.428Z,5.80
2023-04-23T03:55:15.198Z,5.80
2023-04-23T03:57:43.609Z,5.80
2023-04-23T04:00:11.294Z,5.80
2023-04-23T04:02:38.199Z,5.70
2023-04-23T04:05:06.012Z,5.70
2023-04-23T04:07:32.940Z,5.60
2023-04-23T04:09:59.667Z,5.60
2023-04-23T04:12:26.485Z,5.60
2023-04-23T04:14:54.656Z,5.50
2023-04-23T04:17:21.447Z,5.50
2023-04-23T04:19:48.270Z,5.50
2023-04-23T04:22:15.131Z,5.50
2023-04-23T04:24:42.264Z,5.50
2023-04-23T04:27:09.798Z,5.60
2023-04-23T04:29:36.551Z,5.60
2023-04-23T04:32:04.952Z,5.60
2023-04-23T04:34:31.663Z,5.70
2023-04-23T04:36:58.417Z,5.70
2023-04-23T04:39:25.205Z,5.70
2023-04-23T04:41:51.956Z,5.80
2023-04-23T04:47:00.593Z,6.00
2023-04-23T04:49:27.683Z,6.00
2023-04-23T04:51:54.469Z,6.10
2023-04-23T04:54:21.206Z,6.10
2023-04-23T04:56:47.950Z,6.20
2023-04-23T04:59:14.704Z,6.30
2023-04-23T05:01:42.084Z,6.30
2023-04-23T05:04:10.372Z,6.40
2023-04-23T05:06:37.408Z,6.40
2023-04-23T05:09:04.213Z,6.40
2023-04-23T05:11:31.573Z,6.40
2023-04-23T05:13:59.651Z,6.40
2023-04-23T05:16:26.437Z,6.40
2023-04-23T05:18:53.233Z,6.40
2023-04-23T05:21:21.695Z,6.40
2023-04-23T05:23:48.408Z,6.40
2023-04-23T05:26:15.182Z,6.40
2023-04-23T05:28:41.973Z,6.40
2023-04-23T05:31:14.358Z,6.50
2023-04-23T05:33:49.090Z,6.60
2023-04-23T05:36:17.792Z,6.80
2023-04-23T05:38:46.820Z,6.90
2023-04-23T05:41:13.433Z,7.00
2023-04-23T05:43:40.201Z,6.90
2023-04-23T05:46:06.984Z,7.00
2023-04-23T05:48:33.936Z,7.00
2023-04-23T05:51:00.858Z,7.10
2023-04-23T05:53:28.444Z,7.40
2023-04-23T05:55:56.526Z,8.10
2023-04-23T05:58:24.900Z,8.90
2023-04-23T06:00:52.310Z,9.70
2023-04-23T06:03:19.272Z,10.10
2023-04-23T06:05:46.279Z,10.30
2023-04-23T06:08:13.079Z,10.10
2023-04-23T06:10:39.874Z,10.10
2023-04-23T06:13:07.985Z,10.70
2023-04-23T06:15:35.297Z,11.60
2023-04-23T06:18:02.144Z,12.30
2023-04-23T06:20:29.810Z,12.70
2023-04-23T06:22:56.816Z,12.60
2023-04-23T06:25:23.566Z,12.70
2023-04-23T06:27:50.291Z,13.40
2023-04-23T06:30:18.751Z,13.80
2023-04-23T06:32:47.435Z,14.10
2023-04-23T06:35:14.190Z,14.00
2023-04-23T06:37:40.911Z,14.00
2023-04-23T06:40:08.446Z,13.90
2023-04-23T06:42:35.216Z,13.70
2023-04-23T06:45:02.789Z,13.40
2023-04-23T06:47:32.364Z,13.50
2023-04-23T06:49:59.126Z,13.30
2023-04-23T06:52:26.197Z,13.40
2023-04-23T06:54:53.536Z,14.00
2023-04-23T06:57:20.344Z,14.80
2023-04-23T06:59:47.410Z,15.00
2023-04-23T07:02:14.263Z,14.70
2023-04-23T07:04:42.905Z,14.50
2023-04-23T07:07:09.752Z,14.30
2023-04-23T07:09:36.582Z,14.10
2023-04-23T07:12:03.914Z,15.00
2023-04-23T07:14:32.056Z,15.10
2023-04-23T07:16:59.109Z,15.20
2023-04-23T07:19:28.334Z,14.80
2023-04-23T07:21:56.425Z,14.90
2023-04-23T07:24:23.216Z,14.00
2023-04-23T07:26:50.050Z,14.30
2023-04-23T07:29:16.798Z,14.50
2023-04-23T07:31:43.612Z,14.60
2023-04-23T07:34:10.512Z,15.10
2023-04-23T07:36:38.358Z,15.30
2023-04-23T07:39:06.735Z,15.20
2023-04-23T07:41:33.532Z,15.70
2023-04-23T07:44:00.327Z,16.30
2023-04-23T07:46:27.298Z,16.10
2023-04-23T07:48:54.161Z,15.60
2023-04-23T07:51:23.372Z,15.50
2023-04-23T07:53:51.293Z,15.50
2023-04-23T07:56:19.405Z,15.30
2023-04-23T07:58:46.135Z,14.60
2023-04-23T08:01:13.030Z,14.40
2023-04-23T08:03:40.321Z,14.90
2023-04-23T08:06:07.302Z,14.90
2023-04-23T08:08:34.075Z,14.60
2023-04-23T08:11:00.888Z,14.80
2023-04-23T08:13:29.019Z,14.80
2023-04-23T08:15:55.766Z,15.20
2023-04-23T08:18:22.505Z,15.40
2023-04-23T08:20:49.406Z,15.10
2023-04-23T08:23:16.221Z,15.10
2023-04-23T08:25:43.198Z,14.60
2023-04-23T08:28:12.712Z,14.60
2023-04-23T08:30:43.189Z,14.50
2023-04-23T08:33:10.066Z,14.70
2023-04-23T08:35:36.898Z,15.00
2023-04-23T08:38:03.751Z,14.80
2023-04-23T08:40:31.952Z,14.40
2023-04-23T08:43:02.521Z,14.60
2023-04-23T08:45:30.263Z,14.80
2023-04-23T08:48:02.032Z,14.40
2023-04-23T08:50:30.083Z,14.50
2023-04-23T08:52:57.741Z,14.90
2023-04-23T08:55:25.061Z,15.20
2023-04-23T08:57:52.270Z,15.60
2023-04-23T09:00:21.681Z,15.60
2023-04-23T09:02:49.827Z,15.60
2023-04-23T09:05:18.468Z,15.20
2023-04-23T09:07:45.372Z,15.00
2023-04-23T09:10:14.813Z,14.90
2023-04-23T09:12:44.256Z,15.00
2023-04-23T09:15:11.804Z,15.30
2023-04-23T09:17:40.713Z,15.30
2023-04-23T09:20:08.767Z,15.50
2023-04-23T09:22:41.301Z,15.80
2023-04-23T09:25:10.427Z,15.50
2023-04-23T09:27:37.723Z,15.60
2023-04-23T09:30:05.308Z,16.00
2023-04-23T09:32:32.681Z,16.50
2023-04-23T09:34:59.495Z,16.50
2023-04-23T09:37:26.775Z,16.20
2023-04-23T09:39:58.615Z,16.10
2023-04-23T09:42:27.763Z,15.90
2023-04-23T09:44:56.783Z,15.90
2023-04-23T09:47:25.173Z,15.60
2023-04-23T09:49:52.182Z,15.70
2023-04-23T09:52:19.301Z,15.90
2023-04-23T09:54:46.462Z,16.20
2023-04-23T09:57:14.673Z,16.10
2023-04-23T09:59:48.794Z,15.90
2023-04-23T10:02:18.199Z,16.30
2023-04-23T10:04:45.152Z,16.30
2023-04-23T10:09:41.801Z,16.70
2023-04-23T10:12:24.308Z,17.10
2023-04-23T10:14:58.755Z,17.10
2023-04-23T10:17:25.670Z,16.70
2023-04-23T10:19:52.660Z,16.90
2023-04-23T10:22:21.711Z,16.80
2023-04-23T10:24:53.452Z,16.00
2023-04-23T10:27:33.503Z,16.00
2023-04-23T10:30:12.785Z,15.70
2023-04-23T10:32:39.783Z,16.10
2023-04-23T10:35:07.900Z,16.30
2023-04-23T10:37:35.902Z,16.30
2023-04-23T10:40:07.361Z,16.50
2023-04-23T10:42:34.345Z,16.40
2023-04-23T10:45:09.925Z,16.50
2023-04-23T10:47:38.433Z,16.60
2023-04-23T10:50:19.441Z,16.70
2023-04-23T10:52:46.562Z,17.00
2023-04-23T10:55:17.758Z,17.10
2023-04-23T10:58:00.823Z,17.40
2023-04-23T11:00:30.666Z,17.10
2023-04-23T11:02:58.823Z,17.10
2023-04-23T11:05:26.357Z,17.20
2023-04-23T11:08:18.202Z,16.90
2023-04-23T11:10:54.849Z,16.80
2023-04-23T11:13:23.722Z,16.80
2023-04-23T11:16:13.244Z,16.30
2023-04-23T11:19:01.490Z,16.10
2023-04-23T11:22:00.076Z,16.10
2023-04-23T11:24:31.636Z,15.90
2023-04-23T11:26:59.060Z,15.90
2023-04-23T11:29:27.483Z,15.90
2023-04-23T11:32:02.411Z,16.10
2023-04-23T11:34:32.167Z,16.20
2023-04-23T11:36:59.670Z,16.10
2023-04-23T11:39:26.482Z,15.80
2023-04-23T11:41:54.002Z,15.50
2023-04-23T11:44:21.860Z,15.60
2023-04-23T11:46:49.121Z,16.00
2023-04-23T11:49:16.548Z,16.10
2023-04-23T11:51:45.740Z,16.20
2023-04-23T11:54:13.492Z,16.40
2023-04-23T11:56:41.016Z,16.50
2023-04-23T11:59:07.937Z,16.30
2023-04-23T12:01:45.352Z,16.20
2023-04-23T12:04:13.805Z,16.30
2023-04-23T12:06:42.660Z,16.40
2023-04-23T12:09:11.230Z,16.60
2023-04-23T12:11:38.202Z,16.70
2023-04-23T12:14:06.713Z,16.60
2023-04-23T12:16:35.634Z,16.50
2023-04-23T12:19:02.710Z,16.00
2023-04-23T12:21:29.611Z,16.10
2023-04-23T12:23:57.302Z,16.10
2023-04-23T12:26:26.075Z,16.10
2023-04-23T12:28:53.283Z,16.20
2023-04-23T12:31:20.636Z,16.40
2023-04-23T12:33:47.401Z,16.50
2023-04-23T12:36:15.802Z,16.30
2023-04-23T12:38:42.548Z,16.10
2023-04-23T12:41:09.341Z,15.90
2023-04-23T12:43:37.877Z,15.60
2023-04-23T12:46:04.673Z,15.60
2023-04-23T12:48:31.416Z,15.80
2023-04-23T12:50:58.162Z,15.90
2023-04-23T12:53:25.925Z,16.20
2023-04-23T12:55:52.641Z,16.30
2023-04-23T12:58:19.382Z,16.20
2023-04-23T13:00:47.563Z,16.30
2023-04-23T13:03:14.436Z,16.20
2023-04-23T13:05:41.371Z,16.00
2023-04-23T13:08:08.162Z,15.90
2023-04-23T13:10:34.996Z,15.90
2023-04-23T13:13:01.722Z,15.90
2023-04-23T13:15:31.098Z,15.90
2023-04-23T13:17:59.222Z,15.90
2023-04-23T13:20:26.031Z,15.90
2023-04-23T13:22:52.777Z,16.00
2023-04-23T13:25:19.979Z,16.00
2023-04-23T13:27:46.665Z,15.80
2023-04-23T13:30:14.201Z,15.80
2023-04-23T13:32:40.991Z,15.70
2023-04-23T13:35:10.443Z,15.80
2023-04-23T13:37:40.476Z,16.00
2023-04-23T13:40:08.986Z,16.30
2023-04-23T13:42:38.524Z,16.60
2023-04-23T13:45:06.527Z,16.80
2023-04-23T13:47:34.434Z,16.70
2023-04-23T13:50:01.764Z,16.40
2023-04-23T13:52:29.908Z,16.20
2023-04-23T13:54:56.687Z,15.90
2023-04-23T13:57:23.507Z,16.00
2023-04-23T13:59:50.275Z,15.90
2023-04-23T14:02:17.116Z,15.70
2023-04-23T14:04:43.923Z,15.50
2023-04-23T14:07:10.735Z,15.40
2023-04-23T14:09:38.871Z,15.20
2023-04-23T14:12:05.992Z,15.20
2023-04-23T14:14:32.808Z,15.10
2023-04-23T14:16:59.564Z,15.20
2023-04-23T14:19:26.292Z,15.30
2023-04-23T14:21:53.172Z,15.20
2023-04-23T14:24:23.572Z,15.10
2023-04-23T14:26:51.644Z,15.00
2023-04-23T14:29:23.751Z,15.00
2023-04-23T14:31:50.558Z,15.10
2023-04-23T14:34:17.625Z,15.10
2023-04-23T14:36:44.437Z,15.00
2023-04-23T14:39:11.547Z,14.90
2023-04-23T14:41:38.289Z,14.60
2023-04-23T14:44:06.420Z,14.20
2023-04-23T14:46:33.307Z,13.80
2023-04-23T14:49:03.341Z,13.50
2023-04-23T14:51:30.197Z,12.70
2023-04-23T14:53:57.064Z,12.00
2023-04-23T14:56:24.073Z,11.60
2023-04-23T14:58:50.886Z,11.50
2023-04-23T15:01:19.028Z,11.40
2023-04-23T15:03:46.263Z,11.40
2023-04-23T15:06:13.438Z,11.30
2023-04-23T15:08:40.222Z,11.30
2023-04-23T15:11:06.973Z,11.20
2023-04-23T15:13:43.828Z,11.10
2023-04-23T15:16:39.958Z,11.10
2023-04-23T15:19:12.012Z,11.10
2023-04-23T15:21:38.852Z,11.10
2023-04-23T15:24:05.757Z,10.80
2023-04-23T15:26:32.756Z,10.70
2023-04-23T15:28:59.565Z,10.50
2023-04-23T15:31:27.898Z,10.40
2023-04-23T15:33:54.673Z,10.30
2023-04-23T15:36:21.409Z,10.30
2023-04-23T15:38:48.137Z,10.20
2023-04-23T15:41:15.201Z,10.10
2023-04-23T15:43:41.969Z,10.10
2023-04-23T15:46:08.740Z,10.00
2023-04-23T15:48:36.886Z,9.90
2023-04-23T15:51:03.943Z,9.90
2023-04-23T15:53:31.943Z,9.90
2023-04-23T15:55:58.691Z,9.90
2023-04-23T15:58:25.435Z,9.90
2023-04-23T16:00:52.219Z,9.80
2023-04-23T16:03:19.050Z,9.80
2023-04-23T16:05:47.222Z,9.80
2023-04-23T16:08:13.997Z,9.80
2023-04-23T16:10:40.896Z,9.80
2023-04-23T16:13:07.728Z,9.80
2023-04-23T16:15:34.730Z,9.80
2023-04-23T16:18:01.549Z,9.80
2023-04-23T16:20:28.713Z,9.80
2023-04-23T16:22:56.917Z,9.80
2023-04-23T16:25:24.145Z,9.90
2023-04-23T16:27:51.127Z,9.80
2023-04-23T16:30:18.003Z,9.90
2023-04-23T16:32:44.770Z,9.90
2023-04-23T16:35:11.622Z,9.90
2023-04-23T16:37:38.376Z,9.90
2023-04-23T16:40:07.857Z,9.80
2023-04-23T16:42:34.773Z,9.80
2023-04-23T16:45:01.668Z,9.70
2023-04-23T16:47:29.137Z,9.70
2023-04-23T16:49:55.888Z,9.80
2023-04-23T16:52:22.704Z,9.70
2023-04-23T16:54:49.602Z,9.70
2023-04-23T16:57:18.374Z,9.70
2023-04-23T17:01:22.145Z,9.60
2023-04-23T17:03:49.221Z,9.50
2023-04-23T17:06:24.580Z,9.50
2023-04-23T17:08:51.417Z,9.50
2023-04-23T17:11:18.162Z,9.50
2023-04-23T17:13:44.981Z,9.50
2023-04-23T17:16:13.036Z,9.50
2023-04-23T17:18:41.105Z,9.50
2023-04-23T17:21:07.842Z,9.60
2023-04-23T17:23:35.014Z,9.60
2023-04-23T17:26:01.788Z,9.70
2023-04-23T17:28:28.941Z,9.70
2023-04-23T17:30:56.061Z,9.80
2023-04-23T17:33:23.849Z,9.80
2023-04-23T17:35:52.964Z,9.90
2023-04-23T17:38:20.068Z,9.90
2023-04-23T17:40:47.069Z,9.90
2023-04-23T17:43:14.091Z,9.90
2023-04-23T17:45:41.134Z,9.90
2023-04-23T17:48:08.326Z,10.00
2023-04-23T17:50:35.489Z,9.90
2023-04-23T17:53:03.769Z,10.00
2023-04-23T17:55:30.690Z,10.00
2023-04-23T17:57:57.449Z,10.00
2023-04-23T18:00:24.283Z,10.00
2023-04-23T18:02:51.130Z,10.00
2023-04-23T18:05:18.013Z,10.00
2023-04-23T18:07:45.076Z,10.00
2023-04-23T18:10:13.308Z,10.00
2023-04-23T18:12:40.362Z,9.80
2023-04-23T18:15:08.469Z,9.80
2023-04-23T18:17:35.257Z,9.70
2023-04-23T18:20:02.374Z,9.70
2023-04-23T18:22:29.274Z,9.70
2023-04-23T18:24:56.074Z,9.60
2023-04-23T18:27:24.221Z,9.50
2023-04-23T18:29:51.059Z,9.50
2023-04-23T18:32:31.261Z,9.50
2023-04-23T18:35:00.768Z,9.50
2023-04-23T18:37:33.258Z,9.50
2023-04-23T18:40:00.484Z,9.50
2023-04-23T18:42:28.614Z,9.40
2023-04-23T18:44:55.406Z,9.40
2023-04-23T18:47:25.830Z,9.50
2023-04-23T18:49:54.574Z,9.50
2023-04-23T18:52:21.538Z,9.40
2023-04-23T18:54:48.585Z,9.40
2023-04-23T18:57:15.372Z,9.40
2023-04-23T18:59:43.624Z,9.40
2023-04-23T19:02:14.630Z,9.40
2023-04-23T19:04:48.481Z,9.40
2023-04-23T19:07:15.306Z,9.40
2023-04-23T19:09:42.385Z,9.40
2023-04-23T19:12:09.374Z,9.40
2023-04-23T19:14:36.127Z,9.30
2023-04-23T19:17:04.192Z,9.30
2023-04-23T19:19:30.902Z,9.30
2023-04-23T19:21:57.818Z,9.30
2023-04-23T19:24:24.528Z,9.30
2023-04-23T19:26:51.237Z,9.30
2023-04-23T19:29:18.030Z,9.30
2023-04-23T19:31:44.764Z,9.30
2023-04-23T19:34:15.846Z,9.30
2023-04-23T19:36:42.554Z,9.30
2023-04-23T19:39:09.580Z,9.30
2023-04-23T19:41:36.337Z,9.30
2023-04-23T19:44:03.382Z,9.30
2023-04-23T19:46:30.176Z,9.40
2023-04-23T19:48:57.003Z,9.30
2023-04-23T19:51:29.543Z,9.20
2023-04-23T19:53:56.420Z,9.20
2023-04-23T19:56:23.210Z,9.10
2023-04-23T19:58:49.976Z,9.10
2023-04-23T20:01:16.831Z,9.10
2023-04-23T20:03:43.664Z,9.00
2023-04-23T20:06:10.463Z,9.00
2023-04-23T20:08:38.551Z,8.90
2023-04-23T20:11:05.395Z,8.90
2023-04-23T20:13:32.124Z,8.80
2023-04-23T20:15:58.841Z,8.70
2023-04-23T20:18:26.793Z,8.70
2023-04-23T20:20:53.537Z,8.70
2023-04-23T20:23:22.744Z,8.70
2023-04-23T20:25:50.837Z,8.70
2023-04-23T20:28:17.764Z,8.60
2023-04-23T20:30:44.592Z,8.60
2023-04-23T20:33:11.789Z,8.50
2023-04-23T20:35:38.943Z,8.50
2023-04-23T20:38:05.709Z,8.30
2023-04-23T20:40:32.433Z,8.20
2023-04-23T20:43:00.604Z,8.00
2023-04-23T20:45:27.391Z,8.00
2023-04-23T20:47:54.224Z,7.90
2023-04-23T20:50:20.968Z,7.90
2023-04-23T20:52:47.694Z,7.90
2023-04-23T20:55:14.457Z,7.90
2023-04-23T20:57:41.210Z,7.90
2023-04-23T21:00:12.502Z,7.80
2023-04-23T21:02:40.657Z,7.80
2023-04-23T21:05:08.350Z,7.90
2023-04-23T21:07:35.175Z,7.90
2023-04-23T21:10:02.086Z,7.80
2023-04-23T21:12:29.472Z,7.90
2023-04-23T21:14:57.427Z,7.90
2023-04-23T21:17:25.540Z,7.90
2023-04-23T21:19:52.306Z,7.80
2023-04-23T21:22:19.002Z,7.80
2023-04-23T21:24:45.753Z,7.70
2023-04-23T21:27:15.472Z,7.70
2023-04-23T21:29:44.383Z,7.70
2023-04-23T21:32:11.365Z,7.70
2023-04-23T21:34:39.481Z,7.70
2023-04-23T21:37:07.285Z,7.70
2023-04-23T21:39:34.353Z,7.70
2023-04-23T21:42:01.100Z,7.60
2023-04-23T21:44:27.967Z,7.60
2023-04-23T21:46:54.800Z,7.50
2023-04-23T21:49:21.589Z,7.40
2023-04-23T21:51:49.633Z,7.40
2023-04-23T21:54:16.459Z,7.40
2023-04-23T21:56:43.275Z,7.30
2023-04-23T21:59:10.062Z,7.30
2023-04-23T22:01:37.014Z,7.20
2023-04-23T22:04:04.145Z,7.20
2023-04-23T22:06:32.082Z,7.10
2023-04-23T22:09:00.428Z,7.00
2023-04-23T22:11:27.277Z,6.90
2023-04-23T22:13:54.011Z,6.90
2023-04-23T22:16:28.067Z,6.80
2023-04-23T22:18:55.600Z,6.90
2023-04-23T22:21:22.431Z,6.90
2023-04-23T22:23:49.158Z,6.90
2023-04-23T22:26:17.259Z,6.90
2023-04-23T22:28:44.452Z,6.90
2023-04-23T22:31:11.882Z,7.00
2023-04-23T22:33:38.644Z,7.10
2023-04-23T22:36:05.714Z,7.10
2023-04-23T22:38:32.516Z,7.10
2023-04-23T22:40:59.337Z,7.10
2023-04-23T22:43:27.707Z,7.10
2023-04-23T22:45:54.585Z,7.10
2023-04-23T22:48:21.325Z,7.10
2023-04-23T22:50:48.076Z,7.20
2023-04-23T22:53:14.806Z,7.20
2023-04-23T22:55:41.783Z,7.20
2023-04-23T22:58:08.576Z,7.20
2023-04-23T23:00:36.672Z,7.20
2023-04-23T23:03:03.571Z,7.20
2023-04-23T23:05:30.347Z,7.20
2023-04-23T23:07:57.342Z,7.20
2023-04-23T23:10:24.139Z,7.20
2023-04-23T23:12:50.934Z,7.20
2023-04-23T23:15:17.788Z,7.20
2023-04-23T23:17:45.930Z,7.20
2023-04-23T23:20:12.702Z,7.20
2023-04-23T23:22:39.765Z,7.30
2023-04-23T23:25:07.451Z,7.20
2023-04-23T23:27:34.366Z,7.20
2023-04-23T23:30:01.121Z,7.30
2023-04-23T23:32:27.926Z,7.30
2023-04-23T23:34:56.146Z,7.30
2023-04-23T23:37:24.182Z,7.30
2023-04-23T23:39:50.942Z,7.30
2023-04-23T23:42:17.810Z,7.30
2023-04-23T23:44:44.562Z,7.30
2023-04-23T23:47:11.600Z,7.30
2023-04-23T23:49:38.409Z,7.30
2023-04-23T23:52:06.487Z,7.30
2023-04-23T23:54:33.498Z,7.20
2023-04-23T23:57:00.253Z,7.20
2023-04-23T23:59:26.998Z,7.20
